Αρχική σελίδα
METAR-TAF:

METAR-TAF

Αεροδρόμια :

Atyrau, Καζακστάν

γεωγραφικό πλάτος: 47-07-19N, γεωγραφικό μήκος: 051-49-17E, υψόμετρο: -22 μ

Παρών καιρός

Η αναφορά έγινε 31 λεπτά πριν, στις 02:30 UTC
Άνεμος 4 kt από Δ
Θερμοκρασία 24°C
Υγρασία 61%
Πίεση 1005 hPa
Ορατότητα 10 χλμ και άνω
Δεν υπάρχουν νέφη με βάση κάτω από τα 1500 μ. και δεν υπάρχουν νέφη σωρειτομελανίτες.

METAR: UATG 230230Z 26002MPS CAVOK 24/16 Q1005 NOSIG RMK QFE756/1008

Χρόνος: 09:01 (03:01 UTC)

Πρόγνωση Καιρού

Η αναφορά έγινε 4 ώρες και 1 λεπτά πριν, στις 23:00 UTC
Η πρόγνωση ισχύει από τις 23 στις 00 UTC έως τις 23 στις 24 UTC
Άνεμος 14 kt από Δ/ΝΔ
Ορατότητα 10 χλμ και άνω
Διάσπαρτα νέφη σε ύψος 3300 πόδια, Σωρειτομελανίτες.
Προσωρινά
από 23 στις 00 UTC έως τις 23 στις 04 UTC
Άνεμος 4 kt από μεταβλητές κατευθύνσεις

TAF: UATG 222300Z 2300/2324 25007MPS 9999 SCT033CB TX35/2310Z TN22/2302Z TEMPO 2300/2304 VRB02MPS

Μετεωρολογικές αναφορές και προγνώσεις για περισσότερα από 4000 αεροδρόμια (δελτία METAR και TAF).

Οι διαθέσιμοι σταθμοί απεικονίζονται στο χάρτη με κίτρινες και κόκκινες κουκκίδες.

Μετακινήστε το ποντίκι πάνω από τις κουκκίδες για να δείτε το όνομα του σταθμού.

Στη συνέχεια, κάντε κλικ για να δείτε τις μετεωρολογικές αναφορές και τις προγνώσεις καιρού.

Για να αλλάξετε το χάρτη: κάντε κλικ στα πράσινα κουμπιά με τον μαύρο σταυρό για να ζουμάρετε, στο πράσινο κουμπί με την παύλα για να αφαιρέσετε το ζουμ ή στα πράσινα βέλη για να αντιπαραβάλλετε χάρτες.


METAR-TAF: